sensor_id;sensor_type;location;lat;lon;timestamp;temperature;humidity
4245;DHT22;2136;48.502;9.194;2022-11-20T00:00:04;8.00;81.60
4245;DHT22;2136;48.502;9.194;2022-11-20T00:02:31;7.90;81.60
4245;DHT22;2136;48.502;9.194;2022-11-20T00:04:57;7.90;82.00
4245;DHT22;2136;48.502;9.194;2022-11-20T00:07:24;7.80;82.40
4245;DHT22;2136;48.502;9.194;2022-11-20T00:09:51;7.80;82.80
4245;DHT22;2136;48.502;9.194;2022-11-20T00:12:18;7.70;83.20
4245;DHT22;2136;48.502;9.194;2022-11-20T00:14:46;7.70;83.70
4245;DHT22;2136;48.502;9.194;2022-11-20T00:17:13;7.70;84.20
4245;DHT22;2136;48.502;9.194;2022-11-20T00:19:39;7.60;84.60
4245;DHT22;2136;48.502;9.194;2022-11-20T00:22:06;7.60;85.10
4245;DHT22;2136;48.502;9.194;2022-11-20T00:24:33;7.60;85.80
4245;DHT22;2136;48.502;9.194;2022-11-20T00:27:00;7.60;86.30
4245;DHT22;2136;48.502;9.194;2022-11-20T00:29:26;7.50;86.60
4245;DHT22;2136;48.502;9.194;2022-11-20T00:31:55;7.50;87.10
4245;DHT22;2136;48.502;9.194;2022-11-20T00:34:21;7.50;87.40
4245;DHT22;2136;48.502;9.194;2022-11-20T00:36:48;7.50;87.80
4245;DHT22;2136;48.502;9.194;2022-11-20T00:39:15;7.50;87.90
4245;DHT22;2136;48.502;9.194;2022-11-20T00:41:42;7.50;88.10
4245;DHT22;2136;48.502;9.194;2022-11-20T00:44:08;7.50;88.50
4245;DHT22;2136;48.502;9.194;2022-11-20T00:46:35;7.40;88.70
4245;DHT22;2136;48.502;9.194;2022-11-20T00:49:03;7.40;88.70
4245;DHT22;2136;48.502;9.194;2022-11-20T00:51:30;7.50;89.00
4245;DHT22;2136;48.502;9.194;2022-11-20T00:53:57;7.40;89.10
4245;DHT22;2136;48.502;9.194;2022-11-20T00:56:25;7.40;89.40
4245;DHT22;2136;48.502;9.194;2022-11-20T00:58:52;7.40;90.00
4245;DHT22;2136;48.502;9.194;2022-11-20T01:01:21;7.30;90.10
4245;DHT22;2136;48.502;9.194;2022-11-20T01:03:50;7.30;90.30
4245;DHT22;2136;48.502;9.194;2022-11-20T01:06:20;7.30;90.30
4245;DHT22;2136;48.502;9.194;2022-11-20T01:08:48;7.20;90.50
4245;DHT22;2136;48.502;9.194;2022-11-20T01:11:17;7.20;90.70
4245;DHT22;2136;48.502;9.194;2022-11-20T01:13:45;7.10;90.80
4245;DHT22;2136;48.502;9.194;2022-11-20T01:16:14;7.10;91.20
4245;DHT22;2136;48.502;9.194;2022-11-20T01:18:43;7.10;91.90
4245;DHT22;2136;48.502;9.194;2022-11-20T01:21:12;7.10;91.90
4245;DHT22;2136;48.502;9.194;2022-11-20T01:23:41;7.00;91.90
4245;DHT22;2136;48.502;9.194;2022-11-20T01:26:11;7.00;92.10
4245;DHT22;2136;48.502;9.194;2022-11-20T01:28:39;7.00;92.40
4245;DHT22;2136;48.502;9.194;2022-11-20T01:31:14;7.00;92.40
4245;DHT22;2136;48.502;9.194;2022-11-20T01:33:42;7.00;92.60
4245;DHT22;2136;48.502;9.194;2022-11-20T01:36:10;7.00;92.90
4245;DHT22;2136;48.502;9.194;2022-11-20T01:38:37;7.10;93.10
4245;DHT22;2136;48.502;9.194;2022-11-20T01:41:06;7.10;93.40
4245;DHT22;2136;48.502;9.194;2022-11-20T01:43:33;7.10;93.10
4245;DHT22;2136;48.502;9.194;2022-11-20T01:46:05;7.10;92.80
4245;DHT22;2136;48.502;9.194;2022-11-20T01:48:36;7.10;92.50
4245;DHT22;2136;48.502;9.194;2022-11-20T01:51:07;7.10;92.40
4245;DHT22;2136;48.502;9.194;2022-11-20T01:53:37;7.10;92.20
4245;DHT22;2136;48.502;9.194;2022-11-20T01:56:09;7.00;92.30
4245;DHT22;2136;48.502;9.194;2022-11-20T01:58:47;7.00;92.40
4245;DHT22;2136;48.502;9.194;2022-11-20T02:01:15;6.90;92.30
4245;DHT22;2136;48.502;9.194;2022-11-20T02:03:42;6.90;92.30
4245;DHT22;2136;48.502;9.194;2022-11-20T02:06:14;6.90;92.40
4245;DHT22;2136;48.502;9.194;2022-11-20T02:08:42;6.90;92.60
4245;DHT22;2136;48.502;9.194;2022-11-20T02:11:11;6.80;92.60
4245;DHT22;2136;48.502;9.194;2022-11-20T02:13:39;6.80;92.70
4245;DHT22;2136;48.502;9.194;2022-11-20T02:16:21;6.80;92.70
4245;DHT22;2136;48.502;9.194;2022-11-20T02:18:51;6.80;93.00
4245;DHT22;2136;48.502;9.194;2022-11-20T02:21:33;6.80;92.90
4245;DHT22;2136;48.502;9.194;2022-11-20T02:24:07;6.90;93.00
4245;DHT22;2136;48.502;9.194;2022-11-20T02:26:40;6.90;92.80
4245;DHT22;2136;48.502;9.194;2022-11-20T02:29:07;7.00;92.60
4245;DHT22;2136;48.502;9.194;2022-11-20T02:31:37;7.10;92.40
4245;DHT22;2136;48.502;9.194;2022-11-20T02:34:05;7.10;91.90
4245;DHT22;2136;48.502;9.194;2022-11-20T02:36:33;7.20;91.50
4245;DHT22;2136;48.502;9.194;2022-11-20T02:39:01;7.20;90.80
4245;DHT22;2136;48.502;9.194;2022-11-20T02:41:33;7.30;90.50
4245;DHT22;2136;48.502;9.194;2022-11-20T02:44:00;7.30;90.20
4245;DHT22;2136;48.502;9.194;2022-11-20T02:46:27;7.40;89.70
4245;DHT22;2136;48.502;9.194;2022-11-20T02:48:54;7.40;88.20
4245;DHT22;2136;48.502;9.194;2022-11-20T02:51:22;7.40;87.20
4245;DHT22;2136;48.502;9.194;2022-11-20T02:53:48;7.40;86.40
4245;DHT22;2136;48.502;9.194;2022-11-20T02:56:16;7.50;85.60
4245;DHT22;2136;48.502;9.194;2022-11-20T02:58:44;7.60;84.50
4245;DHT22;2136;48.502;9.194;2022-11-20T03:01:11;7.50;83.80
4245;DHT22;2136;48.502;9.194;2022-11-20T03:03:38;7.60;83.00
4245;DHT22;2136;48.502;9.194;2022-11-20T03:06:05;7.70;81.90
4245;DHT22;2136;48.502;9.194;2022-11-20T03:08:32;7.70;81.00
4245;DHT22;2136;48.502;9.194;2022-11-20T03:11:02;7.70;80.40
4245;DHT22;2136;48.502;9.194;2022-11-20T03:13:29;7.70;79.20
4245;DHT22;2136;48.502;9.194;2022-11-20T03:15:57;7.70;78.40
4245;DHT22;2136;48.502;9.194;2022-11-20T03:18:27;7.80;77.90
4245;DHT22;2136;48.502;9.194;2022-11-20T03:20:57;7.80;77.40
4245;DHT22;2136;48.502;9.194;2022-11-20T03:23:24;7.90;76.90
4245;DHT22;2136;48.502;9.194;2022-11-20T03:25:51;7.90;76.50
4245;DHT22;2136;48.502;9.194;2022-11-20T03:28:18;7.80;75.90
4245;DHT22;2136;48.502;9.194;2022-11-20T03:30:45;7.80;75.40
4245;DHT22;2136;48.502;9.194;2022-11-20T03:33:13;7.70;75.30
4245;DHT22;2136;48.502;9.194;2022-11-20T03:35:40;7.70;75.30
4245;DHT22;2136;48.502;9.194;2022-11-20T03:38:07;7.70;75.10
4245;DHT22;2136;48.502;9.194;2022-11-20T03:40:34;7.70;74.60
4245;DHT22;2136;48.502;9.194;2022-11-20T03:43:01;7.60;74.80
4245;DHT22;2136;48.502;9.194;2022-11-20T03:45:28;7.60;74.70
4245;DHT22;2136;48.502;9.194;2022-11-20T03:47:55;7.60;74.80
4245;DHT22;2136;48.502;9.194;2022-11-20T03:50:23;7.60;75.00
4245;DHT22;2136;48.502;9.194;2022-11-20T03:52:50;7.70;75.30
4245;DHT22;2136;48.502;9.194;2022-11-20T03:55:17;7.60;75.40
4245;DHT22;2136;48.502;9.194;2022-11-20T03:57:43;7.70;75.60
4245;DHT22;2136;48.502;9.194;2022-11-20T04:00:11;7.70;75.40
4245;DHT22;2136;48.502;9.194;2022-11-20T04:02:38;7.80;75.30
4245;DHT22;2136;48.502;9.194;2022-11-20T04:05:06;7.80;74.90
4245;DHT22;2136;48.502;9.194;2022-11-20T04:07:35;7.80;74.60
4245;DHT22;2136;48.502;9.194;2022-11-20T04:10:02;7.90;74.40
4245;DHT22;2136;48.502;9.194;2022-11-20T04:12:31;7.90;74.10
4245;DHT22;2136;48.502;9.194;2022-11-20T04:14:58;7.90;73.80
4245;DHT22;2136;48.502;9.194;2022-11-20T04:17:25;8.00;73.80
4245;DHT22;2136;48.502;9.194;2022-11-20T04:19:52;8.00;73.20
4245;DHT22;2136;48.502;9.194;2022-11-20T04:22:19;8.10;73.00
4245;DHT22;2136;48.502;9.194;2022-11-20T04:24:47;8.10;72.70
4245;DHT22;2136;48.502;9.194;2022-11-20T04:27:13;8.10;72.20
4245;DHT22;2136;48.502;9.194;2022-11-20T04:29:40;8.10;72.00
4245;DHT22;2136;48.502;9.194;2022-11-20T04:32:07;8.20;71.90
4245;DHT22;2136;48.502;9.194;2022-11-20T04:34:34;8.20;72.00
4245;DHT22;2136;48.502;9.194;2022-11-20T04:37:01;8.20;71.40
4245;DHT22;2136;48.502;9.194;2022-11-20T04:39:28;8.20;71.20
4245;DHT22;2136;48.502;9.194;2022-11-20T04:41:56;8.20;71.10
4245;DHT22;2136;48.502;9.194;2022-11-20T04:44:37;8.20;71.20
4245;DHT22;2136;48.502;9.194;2022-11-20T04:47:03;8.20;71.20
4245;DHT22;2136;48.502;9.194;2022-11-20T04:49:30;8.20;71.10
4245;DHT22;2136;48.502;9.194;2022-11-20T04:51:58;8.20;70.90
4245;DHT22;2136;48.502;9.194;2022-11-20T04:54:24;8.10;70.60
4245;DHT22;2136;48.502;9.194;2022-11-20T04:56:51;8.10;70.80
4245;DHT22;2136;48.502;9.194;2022-11-20T04:59:19;8.10;70.50
4245;DHT22;2136;48.502;9.194;2022-11-20T05:01:46;8.00;70.10
4245;DHT22;2136;48.502;9.194;2022-11-20T05:04:13;8.00;70.10
4245;DHT22;2136;48.502;9.194;2022-11-20T05:06:40;8.00;70.00
4245;DHT22;2136;48.502;9.194;2022-11-20T05:09:06;8.00;70.00
4245;DHT22;2136;48.502;9.194;2022-11-20T05:11:33;8.00;69.90
4245;DHT22;2136;48.502;9.194;2022-11-20T05:14:00;8.00;69.80
4245;DHT22;2136;48.502;9.194;2022-11-20T05:16:28;8.00;69.50
4245;DHT22;2136;48.502;9.194;2022-11-20T05:18:55;8.00;69.60
4245;DHT22;2136;48.502;9.194;2022-11-20T05:21:22;8.00;69.70
4245;DHT22;2136;48.502;9.194;2022-11-20T05:23:49;8.00;69.70
4245;DHT22;2136;48.502;9.194;2022-11-20T05:26:17;8.00;69.50
4245;DHT22;2136;48.502;9.194;2022-11-20T05:28:44;8.00;69.60
4245;DHT22;2136;48.502;9.194;2022-11-20T05:31:12;8.00;69.80
4245;DHT22;2136;48.502;9.194;2022-11-20T05:33:41;7.90;69.70
4245;DHT22;2136;48.502;9.194;2022-11-20T05:36:10;7.90;69.70
4245;DHT22;2136;48.502;9.194;2022-11-20T05:38:37;7.90;69.70
4245;DHT22;2136;48.502;9.194;2022-11-20T05:41:05;7.90;69.50
4245;DHT22;2136;48.502;9.194;2022-11-20T05:43:32;7.80;69.60
4245;DHT22;2136;48.502;9.194;2022-11-20T05:46:00;7.70;69.60
4245;DHT22;2136;48.502;9.194;2022-11-20T05:48:27;7.70;69.80
4245;DHT22;2136;48.502;9.194;2022-11-20T05:50:56;7.80;70.00
4245;DHT22;2136;48.502;9.194;2022-11-20T05:53:23;7.70;69.60
4245;DHT22;2136;48.502;9.194;2022-11-20T05:55:56;7.70;69.60
4245;DHT22;2136;48.502;9.194;2022-11-20T05:58:23;7.70;69.70
4245;DHT22;2136;48.502;9.194;2022-11-20T06:00:50;7.70;69.70
4245;DHT22;2136;48.502;9.194;2022-11-20T06:03:17;7.70;69.60
4245;DHT22;2136;48.502;9.194;2022-11-20T06:05:44;7.70;69.50
4245;DHT22;2136;48.502;9.194;2022-11-20T06:08:12;7.60;69.30
4245;DHT22;2136;48.502;9.194;2022-11-20T06:10:39;7.60;69.50
4245;DHT22;2136;48.502;9.194;2022-11-20T06:13:05;7.60;69.60
4245;DHT22;2136;48.502;9.194;2022-11-20T06:15:32;7.50;69.90
4245;DHT22;2136;48.502;9.194;2022-11-20T06:17:59;7.50;70.00
4245;DHT22;2136;48.502;9.194;2022-11-20T06:20:26;7.50;70.30
4245;DHT22;2136;48.502;9.194;2022-11-20T06:22:52;7.50;70.40
4245;DHT22;2136;48.502;9.194;2022-11-20T06:25:21;7.50;70.30
4245;DHT22;2136;48.502;9.194;2022-11-20T06:27:47;7.60;70.40
4245;DHT22;2136;48.502;9.194;2022-11-20T06:30:15;7.50;70.30
4245;DHT22;2136;48.502;9.194;2022-11-20T06:32:41;7.50;70.50
4245;DHT22;2136;48.502;9.194;2022-11-20T06:35:09;7.50;70.30
4245;DHT22;2136;48.502;9.194;2022-11-20T06:37:36;7.50;70.20
4245;DHT22;2136;48.502;9.194;2022-11-20T06:40:03;7.60;70.30
4245;DHT22;2136;48.502;9.194;2022-11-20T06:42:32;7.50;70.00
4245;DHT22;2136;48.502;9.194;2022-11-20T06:44:59;7.50;70.40
4245;DHT22;2136;48.502;9.194;2022-11-20T06:47:25;7.60;70.50
4245;DHT22;2136;48.502;9.194;2022-11-20T06:49:52;7.60;70.50
4245;DHT22;2136;48.502;9.194;2022-11-20T06:52:19;7.60;70.30
4245;DHT22;2136;48.502;9.194;2022-11-20T06:54:46;7.60;70.30
4245;DHT22;2136;48.502;9.194;2022-11-20T06:57:13;7.60;70.30
4245;DHT22;2136;48.502;9.194;2022-11-20T06:59:41;7.60;70.30
4245;DHT22;2136;48.502;9.194;2022-11-20T07:02:09;7.60;70.20
4245;DHT22;2136;48.502;9.194;2022-11-20T07:04:37;7.60;70.20
4245;DHT22;2136;48.502;9.194;2022-11-20T07:07:04;7.60;70.10
4245;DHT22;2136;48.502;9.194;2022-11-20T07:09:31;7.60;70.30
4245;DHT22;2136;48.502;9.194;2022-11-20T07:11:58;7.60;70.30
4245;DHT22;2136;48.502;9.194;2022-11-20T07:14:25;7.60;70.30
4245;DHT22;2136;48.502;9.194;2022-11-20T07:16:53;7.60;70.50
4245;DHT22;2136;48.502;9.194;2022-11-20T07:19:19;7.60;70.70
4245;DHT22;2136;48.502;9.194;2022-11-20T07:21:46;7.70;70.90
4245;DHT22;2136;48.502;9.194;2022-11-20T07:24:13;7.70;71.00
4245;DHT22;2136;48.502;9.194;2022-11-20T07:26:40;7.70;70.90
4245;DHT22;2136;48.502;9.194;2022-11-20T07:29:07;7.70;71.10
4245;DHT22;2136;48.502;9.194;2022-11-20T07:31:33;7.80;71.30
4245;DHT22;2136;48.502;9.194;2022-11-20T07:34:02;7.90;71.60
4245;DHT22;2136;48.502;9.194;2022-11-20T07:36:28;7.90;71.40
4245;DHT22;2136;48.502;9.194;2022-11-20T07:38:55;7.90;71.20
4245;DHT22;2136;48.502;9.194;2022-11-20T07:41:22;8.00;71.20
4245;DHT22;2136;48.502;9.194;2022-11-20T07:43:49;8.00;71.20
4245;DHT22;2136;48.502;9.194;2022-11-20T07:46:15;8.10;71.10
4245;DHT22;2136;48.502;9.194;2022-11-20T07:48:42;8.00;70.80
4245;DHT22;2136;48.502;9.194;2022-11-20T07:51:10;8.00;70.90
4245;DHT22;2136;48.502;9.194;2022-11-20T07:53:37;8.10;71.10
4245;DHT22;2136;48.502;9.194;2022-11-20T07:56:04;8.20;70.90
4245;DHT22;2136;48.502;9.194;2022-11-20T07:58:32;8.20;70.90
4245;DHT22;2136;48.502;9.194;2022-11-20T08:01:02;8.30;71.00
4245;DHT22;2136;48.502;9.194;2022-11-20T08:03:30;8.40;70.90
4245;DHT22;2136;48.502;9.194;2022-11-20T08:05:59;8.40;70.30
4245;DHT22;2136;48.502;9.194;2022-11-20T08:08:27;8.40;69.90
4245;DHT22;2136;48.502;9.194;2022-11-20T08:10:56;8.50;69.90
4245;DHT22;2136;48.502;9.194;2022-11-20T08:13:44;8.60;69.70
4245;DHT22;2136;48.502;9.194;2022-11-20T08:16:29;8.60;68.80
4245;DHT22;2136;48.502;9.194;2022-11-20T08:18:55;8.70;68.60
4245;DHT22;2136;48.502;9.194;2022-11-20T08:21:22;8.80;67.80
4245;DHT22;2136;48.502;9.194;2022-11-20T08:23:51;8.80;67.90
4245;DHT22;2136;48.502;9.194;2022-11-20T08:26:17;8.70;68.00
4245;DHT22;2136;48.502;9.194;2022-11-20T08:28:44;8.70;67.90
4245;DHT22;2136;48.502;9.194;2022-11-20T08:31:12;8.80;67.80
4245;DHT22;2136;48.502;9.194;2022-11-20T08:33:39;8.80;67.90
4245;DHT22;2136;48.502;9.194;2022-11-20T08:36:06;8.70;67.80
4245;DHT22;2136;48.502;9.194;2022-11-20T08:38:33;8.60;68.10
4245;DHT22;2136;48.502;9.194;2022-11-20T08:41:03;8.70;68.20
4245;DHT22;2136;48.502;9.194;2022-11-20T08:43:48;8.70;68.30
4245;DHT22;2136;48.502;9.194;2022-11-20T08:46:15;8.60;68.20
4245;DHT22;2136;48.502;9.194;2022-11-20T08:48:42;8.60;68.40
4245;DHT22;2136;48.502;9.194;2022-11-20T08:51:10;8.70;68.90
4245;DHT22;2136;48.502;9.194;2022-11-20T08:53:37;8.80;69.00
4245;DHT22;2136;48.502;9.194;2022-11-20T08:56:06;8.90;69.00
4245;DHT22;2136;48.502;9.194;2022-11-20T08:58:33;8.90;68.70
4245;DHT22;2136;48.502;9.194;2022-11-20T09:01:00;8.90;68.50
4245;DHT22;2136;48.502;9.194;2022-11-20T09:03:27;9.00;68.80
4245;DHT22;2136;48.502;9.194;2022-11-20T09:05:57;8.90;68.50
4245;DHT22;2136;48.502;9.194;2022-11-20T09:08:25;9.00;68.50
4245;DHT22;2136;48.502;9.194;2022-11-20T09:10:51;9.00;68.50
4245;DHT22;2136;48.502;9.194;2022-11-20T09:13:20;9.00;68.50
4245;DHT22;2136;48.502;9.194;2022-11-20T09:15:47;9.00;68.60
4245;DHT22;2136;48.502;9.194;2022-11-20T09:18:13;9.00;68.70
4245;DHT22;2136;48.502;9.194;2022-11-20T09:20:40;9.00;68.80
4245;DHT22;2136;48.502;9.194;2022-11-20T09:23:07;9.00;68.90
4245;DHT22;2136;48.502;9.194;2022-11-20T09:25:34;9.00;69.20
4245;DHT22;2136;48.502;9.194;2022-11-20T09:28:01;9.00;69.00
4245;DHT22;2136;48.502;9.194;2022-11-20T09:30:29;9.10;69.40
4245;DHT22;2136;48.502;9.194;2022-11-20T09:32:56;9.00;69.30
4245;DHT22;2136;48.502;9.194;2022-11-20T09:35:23;9.00;69.40
4245;DHT22;2136;48.502;9.194;2022-11-20T09:37:50;9.10;69.60
4245;DHT22;2136;48.502;9.194;2022-11-20T09:40:20;9.00;69.50
4245;DHT22;2136;48.502;9.194;2022-11-20T09:42:52;9.00;69.80
4245;DHT22;2136;48.502;9.194;2022-11-20T09:45:30;9.00;69.90
4245;DHT22;2136;48.502;9.194;2022-11-20T09:50:57;9.00;70.40
4245;DHT22;2136;48.502;9.194;2022-11-20T09:53:34;9.00;70.20
4245;DHT22;2136;48.502;9.194;2022-11-20T09:56:03;9.00;70.50
4245;DHT22;2136;48.502;9.194;2022-11-20T09:58:33;9.00;70.90
4245;DHT22;2136;48.502;9.194;2022-11-20T10:01:10;8.90;71.20
4245;DHT22;2136;48.502;9.194;2022-11-20T10:03:45;8.90;71.50
4245;DHT22;2136;48.502;9.194;2022-11-20T10:06:15;8.90;72.00
4245;DHT22;2136;48.502;9.194;2022-11-20T10:08:47;9.00;72.60
4245;DHT22;2136;48.502;9.194;2022-11-20T10:11:22;9.00;72.90
4245;DHT22;2136;48.502;9.194;2022-11-20T10:13:58;9.00;73.20
4245;DHT22;2136;48.502;9.194;2022-11-20T10:16:37;9.10;73.90
4245;DHT22;2136;48.502;9.194;2022-11-20T10:19:15;9.10;74.10
4245;DHT22;2136;48.502;9.194;2022-11-20T10:21:56;9.20;74.40
4245;DHT22;2136;48.502;9.194;2022-11-20T10:24:55;9.10;74.30
4245;DHT22;2136;48.502;9.194;2022-11-20T10:27:39;9.10;74.30
4245;DHT22;2136;48.502;9.194;2022-11-20T10:30:10;9.10;74.50
4245;DHT22;2136;48.502;9.194;2022-11-20T10:32:40;9.10;74.70
4245;DHT22;2136;48.502;9.194;2022-11-20T10:35:16;9.20;75.30
4245;DHT22;2136;48.502;9.194;2022-11-20T10:37:46;9.20;75.00
4245;DHT22;2136;48.502;9.194;2022-11-20T10:40:25;9.30;75.10
4245;DHT22;2136;48.502;9.194;2022-11-20T10:42:56;9.30;74.90
4245;DHT22;2136;48.502;9.194;2022-11-20T10:45:36;9.30;74.30
4245;DHT22;2136;48.502;9.194;2022-11-20T10:48:13;9.30;74.60
4245;DHT22;2136;48.502;9.194;2022-11-20T10:50:49;9.40;74.90
4245;DHT22;2136;48.502;9.194;2022-11-20T10:53:36;9.40;74.70
4245;DHT22;2136;48.502;9.194;2022-11-20T10:56:09;9.50;75.10
4245;DHT22;2136;48.502;9.194;2022-11-20T10:58:42;9.50;75.00
4245;DHT22;2136;48.502;9.194;2022-11-20T11:01:15;9.60;75.10
4245;DHT22;2136;48.502;9.194;2022-11-20T11:03:44;9.60;75.10
4245;DHT22;2136;48.502;9.194;2022-11-20T11:06:17;9.60;74.80
4245;DHT22;2136;48.502;9.194;2022-11-20T11:08:49;9.60;74.90
4245;DHT22;2136;48.502;9.194;2022-11-20T11:11:21;9.60;75.10
4245;DHT22;2136;48.502;9.194;2022-11-20T11:13:49;9.60;74.90
4245;DHT22;2136;48.502;9.194;2022-11-20T11:16:21;9.70;74.60
4245;DHT22;2136;48.502;9.194;2022-11-20T11:18:50;9.70;74.40
4245;DHT22;2136;48.502;9.194;2022-11-20T11:21:22;9.70;74.80
4245;DHT22;2136;48.502;9.194;2022-11-20T11:23:58;9.80;75.50
4245;DHT22;2136;48.502;9.194;2022-11-20T11:26:25;9.90;75.70
4245;DHT22;2136;48.502;9.194;2022-11-20T11:28:54;10.00;73.20
4245;DHT22;2136;48.502;9.194;2022-11-20T11:31:25;10.00;72.30
4245;DHT22;2136;48.502;9.194;2022-11-20T11:34:04;10.10;72.50
4245;DHT22;2136;48.502;9.194;2022-11-20T11:36:33;10.30;72.20
4245;DHT22;2136;48.502;9.194;2022-11-20T11:39:02;10.40;72.00
4245;DHT22;2136;48.502;9.194;2022-11-20T11:41:32;10.60;71.80
4245;DHT22;2136;48.502;9.194;2022-11-20T11:44:14;10.80;70.90
4245;DHT22;2136;48.502;9.194;2022-11-20T11:47:02;11.00;70.80
4245;DHT22;2136;48.502;9.194;2022-11-20T11:49:31;11.20;68.90
4245;DHT22;2136;48.502;9.194;2022-11-20T11:52:05;11.30;67.80
4245;DHT22;2136;48.502;9.194;2022-11-20T11:54:38;11.50;67.10
4245;DHT22;2136;48.502;9.194;2022-11-20T11:57:13;11.50;65.70
4245;DHT22;2136;48.502;9.194;2022-11-20T11:59:54;11.50;65.20
4245;DHT22;2136;48.502;9.194;2022-11-20T12:02:31;11.40;64.60
4245;DHT22;2136;48.502;9.194;2022-11-20T12:05:05;11.40;64.60
4245;DHT22;2136;48.502;9.194;2022-11-20T12:07:43;11.40;63.40
4245;DHT22;2136;48.502;9.194;2022-11-20T12:10:17;11.30;64.00
4245;DHT22;2136;48.502;9.194;2022-11-20T12:12:50;11.40;63.30
4245;DHT22;2136;48.502;9.194;2022-11-20T12:15:27;11.40;63.50
4245;DHT22;2136;48.502;9.194;2022-11-20T12:17:55;11.50;63.80
4245;DHT22;2136;48.502;9.194;2022-11-20T12:20:26;11.30;62.40
4245;DHT22;2136;48.502;9.194;2022-11-20T12:22:58;11.30;62.40
4245;DHT22;2136;48.502;9.194;2022-11-20T12:25:28;11.20;62.60
4245;DHT22;2136;48.502;9.194;2022-11-20T12:28:22;10.90;62.20
4245;DHT22;2136;48.502;9.194;2022-11-20T12:31:16;10.90;62.90
4245;DHT22;2136;48.502;9.194;2022-11-20T12:33:56;10.70;62.90
4245;DHT22;2136;48.502;9.194;2022-11-20T12:36:35;10.50;63.40
4245;DHT22;2136;48.502;9.194;2022-11-20T12:42:29;10.40;64.30
4245;DHT22;2136;48.502;9.194;2022-11-20T12:48:51;10.40;64.60
4245;DHT22;2136;48.502;9.194;2022-11-20T12:51:38;10.40;64.80
4245;DHT22;2136;48.502;9.194;2022-11-20T12:54:36;10.40;65.10
4245;DHT22;2136;48.502;9.194;2022-11-20T12:57:09;10.40;65.30
4245;DHT22;2136;48.502;9.194;2022-11-20T13:00:02;10.40;64.80
4245;DHT22;2136;48.502;9.194;2022-11-20T13:02:38;10.30;64.70
4245;DHT22;2136;48.502;9.194;2022-11-20T13:05:18;10.20;64.10
4245;DHT22;2136;48.502;9.194;2022-11-20T13:07:48;10.20;64.10
4245;DHT22;2136;48.502;9.194;2022-11-20T13:10:23;10.10;64.00
4245;DHT22;2136;48.502;9.194;2022-11-20T13:12:58;10.00;63.90
4245;DHT22;2136;48.502;9.194;2022-11-20T13:15:36;10.00;64.20
4245;DHT22;2136;48.502;9.194;2022-11-20T13:18:09;10.00;64.60
4245;DHT22;2136;48.502;9.194;2022-11-20T13:20:41;10.00;64.60
4245;DHT22;2136;48.502;9.194;2022-11-20T13:23:10;10.10;64.50
4245;DHT22;2136;48.502;9.194;2022-11-20T13:25:39;10.20;64.60
4245;DHT22;2136;48.502;9.194;2022-11-20T13:28:26;10.20;64.80
4245;DHT22;2136;48.502;9.194;2022-11-20T13:30:55;10.20;65.30
4245;DHT22;2136;48.502;9.194;2022-11-20T13:33:25;10.20;64.70
4245;DHT22;2136;48.502;9.194;2022-11-20T13:35:56;10.20;64.60
4245;DHT22;2136;48.502;9.194;2022-11-20T13:38:24;10.10;64.00
4245;DHT22;2136;48.502;9.194;2022-11-20T13:40:53;10.10;64.10
4245;DHT22;2136;48.502;9.194;2022-11-20T13:43:33;10.00;63.80
4245;DHT22;2136;48.502;9.194;2022-11-20T13:46:02;10.00;64.10
4245;DHT22;2136;48.502;9.194;2022-11-20T13:48:31;10.00;65.20
4245;DHT22;2136;48.502;9.194;2022-11-20T13:51:09;10.10;66.00
4245;DHT22;2136;48.502;9.194;2022-11-20T13:54:01;10.20;65.40
4245;DHT22;2136;48.502;9.194;2022-11-20T13:56:39;10.40;64.90
4245;DHT22;2136;48.502;9.194;2022-11-20T13:59:15;10.60;63.80
4245;DHT22;2136;48.502;9.194;2022-11-20T14:01:50;10.60;63.30
4245;DHT22;2136;48.502;9.194;2022-11-20T14:04:21;10.60;62.80
4245;DHT22;2136;48.502;9.194;2022-11-20T14:06:51;10.60;62.80
4245;DHT22;2136;48.502;9.194;2022-11-20T14:09:27;10.50;62.10
4245;DHT22;2136;48.502;9.194;2022-11-20T14:11:54;10.40;60.80
4245;DHT22;2136;48.502;9.194;2022-11-20T14:14:23;10.20;59.90
4245;DHT22;2136;48.502;9.194;2022-11-20T14:16:50;10.20;59.50
4245;DHT22;2136;48.502;9.194;2022-11-20T14:19:26;10.10;59.50
4245;DHT22;2136;48.502;9.194;2022-11-20T14:22:06;10.00;59.50
4245;DHT22;2136;48.502;9.194;2022-11-20T14:24:34;10.00;59.60
4245;DHT22;2136;48.502;9.194;2022-11-20T14:27:01;10.00;59.10
4245;DHT22;2136;48.502;9.194;2022-11-20T14:29:29;10.00;59.70
4245;DHT22;2136;48.502;9.194;2022-11-20T14:31:59;10.10;59.20
4245;DHT22;2136;48.502;9.194;2022-11-20T14:34:29;10.10;58.90
4245;DHT22;2136;48.502;9.194;2022-11-20T14:36:58;10.10;58.90
4245;DHT22;2136;48.502;9.194;2022-11-20T14:39:30;10.10;58.90
4245;DHT22;2136;48.502;9.194;2022-11-20T14:41:59;10.10;59.10
4245;DHT22;2136;48.502;9.194;2022-11-20T14:44:29;10.10;59.10
4245;DHT22;2136;48.502;9.194;2022-11-20T14:46:57;10.10;59.30
4245;DHT22;2136;48.502;9.194;2022-11-20T14:49:25;9.90;60.30
4245;DHT22;2136;48.502;9.194;2022-11-20T14:51:59;9.80;60.70
4245;DHT22;2136;48.502;9.194;2022-11-20T14:54:26;9.80;61.30
4245;DHT22;2136;48.502;9.194;2022-11-20T14:56:55;9.70;61.40
4245;DHT22;2136;48.502;9.194;2022-11-20T14:59:25;9.70;61.80
4245;DHT22;2136;48.502;9.194;2022-11-20T15:01:56;9.70;62.00
4245;DHT22;2136;48.502;9.194;2022-11-20T15:04:24;9.70;62.00
4245;DHT22;2136;48.502;9.194;2022-11-20T15:06:53;9.70;62.00
4245;DHT22;2136;48.502;9.194;2022-11-20T15:09:20;9.70;62.00
4245;DHT22;2136;48.502;9.194;2022-11-20T15:11:55;9.60;61.90
4245;DHT22;2136;48.502;9.194;2022-11-20T15:14:26;9.70;62.00
4245;DHT22;2136;48.502;9.194;2022-11-20T15:16:54;9.60;62.00
4245;DHT22;2136;48.502;9.194;2022-11-20T15:19:23;9.60;62.20
4245;DHT22;2136;48.502;9.194;2022-11-20T15:21:50;9.60;62.30
4245;DHT22;2136;48.502;9.194;2022-11-20T15:24:17;9.60;62.40
4245;DHT22;2136;48.502;9.194;2022-11-20T15:26:45;9.50;62.20
4245;DHT22;2136;48.502;9.194;2022-11-20T15:29:13;9.50;62.10
4245;DHT22;2136;48.502;9.194;2022-11-20T15:31:41;9.40;62.40
4245;DHT22;2136;48.502;9.194;2022-11-20T15:34:12;9.30;62.50
4245;DHT22;2136;48.502;9.194;2022-11-20T15:36:40;9.20;62.80
4245;DHT22;2136;48.502;9.194;2022-11-20T15:39:07;9.20;63.00
4245;DHT22;2136;48.502;9.194;2022-11-20T15:41:34;9.10;63.10
4245;DHT22;2136;48.502;9.194;2022-11-20T15:44:00;9.10;63.20
4245;DHT22;2136;48.502;9.194;2022-11-20T15:46:30;9.00;63.40
4245;DHT22;2136;48.502;9.194;2022-11-20T15:49:04;9.00;63.80
4245;DHT22;2136;48.502;9.194;2022-11-20T15:51:33;9.00;64.10
4245;DHT22;2136;48.502;9.194;2022-11-20T15:54:01;8.90;64.20
4245;DHT22;2136;48.502;9.194;2022-11-20T15:56:29;8.80;64.40
4245;DHT22;2136;48.502;9.194;2022-11-20T15:58:58;8.80;64.50
4245;DHT22;2136;48.502;9.194;2022-11-20T16:01:25;8.70;64.60
4245;DHT22;2136;48.502;9.194;2022-11-20T16:03:52;8.70;64.80
4245;DHT22;2136;48.502;9.194;2022-11-20T16:06:20;8.70;64.80
4245;DHT22;2136;48.502;9.194;2022-11-20T16:08:47;8.70;64.80
4245;DHT22;2136;48.502;9.194;2022-11-20T16:11:15;8.60;64.90
4245;DHT22;2136;48.502;9.194;2022-11-20T16:13:42;8.60;64.90
4245;DHT22;2136;48.502;9.194;2022-11-20T16:16:29;8.60;64.80
4245;DHT22;2136;48.502;9.194;2022-11-20T16:18:57;8.60;64.60
4245;DHT22;2136;48.502;9.194;2022-11-20T16:21:26;8.60;64.60
4245;DHT22;2136;48.502;9.194;2022-11-20T16:23:57;8.60;64.10
4245;DHT22;2136;48.502;9.194;2022-11-20T16:26:24;8.70;63.70
4245;DHT22;2136;48.502;9.194;2022-11-20T16:28:50;8.60;63.30
4245;DHT22;2136;48.502;9.194;2022-11-20T16:31:18;8.60;63.20
4245;DHT22;2136;48.502;9.194;2022-11-20T16:33:49;8.60;63.30
4245;DHT22;2136;48.502;9.194;2022-11-20T16:36:17;8.60;63.40
4245;DHT22;2136;48.502;9.194;2022-11-20T16:38:46;8.60;63.50
4245;DHT22;2136;48.502;9.194;2022-11-20T16:41:17;8.60;63.50